• pl
  • eng

Awiacja
WIADOMOŚCI
ostatnia aktualizacja: 17.04.2020 19:04
Szanowni Państwo,

mając na uwadze sytuację związaną z pandemią wywołaną koronawirusem SARS-Cov-2 oraz w trosce o bezpieczeństwo Państwa oraz naszych pracowników, IMGW-PIB podjął decyzję o przeniesieniu kolejnej edycji Szkoły Meteorologii Lotniczej na przyszły rok. W tej chwili podanie dokładnego terminu szkoły nie jest możliwe, ale jak tylko będzie znany zostanie ogłoszony na naszych stronach internetowych, do których śledzenia serdecznie zapraszamy.

Komunikaty METAR z lotnisk wojskowych. 17:01 10.07.2020

METAR EPCE 101530Z 15007KT 120V190 9999 FEW012 BKN047 BKN092 19/16
Q1006 RMK 186 086 7/1=

METAR EPDA 101530Z 17005KT 110V210 9999 -SHRA BKN034TCU BKN092 20/18
Q1005 RMK 196 089 7/5=

METAR EPDE 101530Z 18012KT 9999 SCT070 32/14 Q1010 RMK 315 034 3/3=

METAR EPIR 101530Z NIL=

METAR EPKS 101530Z NIL=

METAR EPLK 101530Z 22014G24KT 190V250 9999 SCT060 29/13 Q1008 RMK
294 037 3/3=

METAR EPLY 101530Z NIL=

METAR EPMB 101530Z 10004KT 9999 -SHRA SCT030CB OVC050 20/18 Q1006 RMK
200 086 8/4=

METAR EPMI 101530Z 16008KT 9999 FEW030 BKN090 BKN200 21/19 Q1006 RMK
206 089 7/2=

METAR EPMM 101530Z 14004KT 9999 BKN070 25/19 Q1010 RMK 248 072 5/5=

METAR EPNA 101530Z NIL=

METAR EPOK 101530Z 14010KT 9999 FEW014 BKN055 18/17
Q1006 RMK 181 092 7/1=

METAR EPPR 101530Z 12004KT 9999 SCT041 BKN079 20/17 Q1006 RMK 196 086
7/4=

METAR EPPW 101530Z NIL=

METAR EPRA 101530Z 22012KT 9999 FEW060 SCT200 30/14 Q1010 RMK 300 038
4/2=

METAR EPSN 101530Z 21007KT 180V250 9999 BKN027 22/17 Q1005 RMK 223
073 7/7 LTG DSNT W=

METAR EPTM 101530Z NIL=
Awiacja.imgw.pl jest pogodowym serwisem informacyjnym
Instytutu Meteorologii i Gospodarki Wodnej Państwowego Instytutu Badawczego.
Copyright IMGW PIB 2009-2019© Wszelkie prawa zastrzeżone.